Time;durP1;ratioP1;P1;durP2;ratioP2;P2;SDS_P1;SDS_P2;PMS_P1;PMS_P2;Temp;Humidity;BMP_temperature;BMP_pressure;BME280_temperature;BME280_humidity;BME280_pressure;Samples;Min_cycle;Max_cycle;Signal;HPM_P1;HPM_P2
2022/01/06 00:02:01;;;;;;;7.03;2.97;;;;;;;;;;4971846;28;20089;-75
2022/01/06 00:04:27;;;;;;;6.93;3.03;;;;;;;;;;4972430;28;20081;-75
2022/01/06 00:06:52;;;;;;;9.85;3.03;;;;;;;;;;4972391;28;20039;-75
2022/01/06 00:09:20;;;;;;;7.07;2.65;;;;;;;;;;4972456;28;20035;-75
2022/01/06 00:11:47;;;;;;;6.35;2.83;;;;;;;;;;4972171;28;20031;-75
2022/01/06 00:24:42;;;;;;;8.05;2.67;;;;;;;;;;4972309;28;20047;-75
2022/01/06 00:27:08;;;;;;;6.05;2.65;;;;;;;;;;4969183;28;20058;-74
2022/01/06 00:29:37;;;;;;;6.93;2.58;;;;;;;;;;4972018;28;20072;-74
2022/01/06 00:32:06;;;;;;;8.68;2.50;;;;;;;;;;4970515;28;20039;-74
2022/01/06 00:34:32;;;;;;;5.45;2.47;;;;;;;;;;4973003;28;20381;-75
2022/01/06 00:36:58;;;;;;;5.32;2.38;;;;;;;;;;4972460;28;20221;-74
2022/01/06 00:39:27;;;;;;;8.35;2.38;;;;;;;;;;4972457;28;20456;-74
2022/01/06 00:41:56;;;;;;;5.50;2.10;;;;;;;;;;4971558;28;20061;-75
2022/01/06 00:44:23;;;;;;;6.13;2.17;;;;;;;;;;4973022;28;20054;-75
2022/01/06 00:46:50;;;;;;;6.72;2.25;;;;;;;;;;4974857;28;20038;-75
2022/01/06 00:49:20;;;;;;;6.32;2.25;;;;;;;;;;4974235;28;20388;-75
2022/01/06 00:51:47;;;;;;;4.82;2.00;;;;;;;;;;4974719;28;20043;-75
2022/01/06 00:54:13;;;;;;;7.70;2.15;;;;;;;;;;4975126;28;20465;-75
2022/01/06 00:56:40;;;;;;;5.30;2.20;;;;;;;;;;4976465;28;20031;-75
2022/01/06 00:59:05;;;;;;;6.07;2.08;;;;;;;;;;4978568;28;20042;-75
2022/01/06 01:01:32;;;;;;;6.30;2.10;;;;;;;;;;4979113;28;20034;-75
2022/01/06 01:03:58;;;;;;;7.25;2.13;;;;;;;;;;4994192;28;20053;-75
2022/01/06 01:06:25;;;;;;;3.28;2.00;;;;;;;;;;4989770;28;20030;-75
2022/01/06 01:08:51;;;;;;;4.95;2.10;;;;;;;;;;4995253;28;20045;-76
2022/01/06 01:11:17;;;;;;;5.60;2.15;;;;;;;;;;4996720;28;20038;-75
2022/01/06 01:13:54;;;;;;;6.05;2.05;;;;;;;;;;4997024;28;20018;-75
2022/01/06 01:16:28;;;;;;;4.72;1.80;;;;;;;;;;4996794;28;20019;-76
2022/01/06 01:18:58;;;;;;;6.25;2.38;;;;;;;;;;4995909;28;20039;-75
2022/01/06 01:21:26;;;;;;;6.05;2.35;;;;;;;;;;4996495;28;20025;-75
2022/01/06 01:23:57;;;;;;;4.22;2.03;;;;;;;;;;4996369;28;20061;-75
2022/01/06 01:26:24;;;;;;;5.03;2.20;;;;;;;;;;4995049;28;20051;-76
2022/01/06 01:28:51;;;;;;;6.25;2.22;;;;;;;;;;4972844;28;20145;-74
2022/01/06 01:31:25;;;;;;;6.65;2.10;;;;;;;;;;4971369;28;20023;-76
2022/01/06 01:33:56;;;;;;;4.45;2.08;;;;;;;;;;4971580;28;20027;-76
2022/01/06 01:36:22;;;;;;;6.07;2.33;;;;;;;;;;4985665;28;20593;-76
2022/01/06 01:38:48;;;;;;;7.85;2.70;;;;;;;;;;4969586;28;20051;-76
2022/01/06 01:41:14;;;;;;;5.38;2.45;;;;;;;;;;4970026;28;20060;-76
2022/01/06 01:43:40;;;;;;;8.68;2.85;;;;;;;;;;4971109;28;20043;-77
2022/01/06 01:46:15;;;;;;;8.15;2.80;;;;;;;;;;4985162;28;20415;-76
2022/01/06 01:48:47;;;;;;;4.07;2.08;;;;;;;;;;4970953;28;20031;-75
2022/01/06 01:51:13;;;;;;;6.18;2.22;;;;;;;;;;4968875;28;20055;-76
2022/01/06 01:53:39;;;;;;;8.40;2.60;;;;;;;;;;4971657;28;20027;-75
2022/01/06 01:56:14;;;;;;;6.32;2.15;;;;;;;;;;4974830;28;20358;-76
2022/01/06 01:58:40;;;;;;;4.97;2.00;;;;;;;;;;4974442;28;20039;-76
2022/01/06 02:01:07;;;;;;;5.75;2.20;;;;;;;;;;4974188;28;20049;-74
2022/01/06 02:03:33;;;;;;;5.88;2.38;;;;;;;;;;4974068;28;20454;-74
2022/01/06 02:05:59;;;;;;;8.65;2.10;;;;;;;;;;4973866;28;20047;-76
2022/01/06 02:08:25;;;;;;;5.43;2.20;;;;;;;;;;4974080;28;20137;-74
2022/01/06 02:10:51;;;;;;;8.25;2.20;;;;;;;;;;4973585;28;20042;-76
2022/01/06 02:13:17;;;;;;;6.45;2.33;;;;;;;;;;4974697;28;20066;-74
2022/01/06 02:15:43;;;;;;;6.57;2.20;;;;;;;;;;4973789;28;20050;-76
2022/01/06 02:18:09;;;;;;;8.13;2.30;;;;;;;;;;4960000;28;20082;-76
2022/01/06 02:20:35;;;;;;;8.02;2.38;;;;;;;;;;4968795;28;20509;-76
2022/01/06 02:23:01;;;;;;;6.47;2.40;;;;;;;;;;4968778;28;20039;-76
2022/01/06 02:25:29;;;;;;;5.68;2.28;;;;;;;;;;4954492;29;20142;-76
2022/01/06 02:27:56;;;;;;;7.63;2.10;;;;;;;;;;4954441;28;20048;-75
2022/01/06 02:30:24;;;;;;;4.75;2.17;;;;;;;;;;4954983;28;20501;-75
2022/01/06 02:32:52;;;;;;;8.98;2.22;;;;;;;;;;4954323;28;20485;-75
2022/01/06 02:35:20;;;;;;;8.60;2.58;;;;;;;;;;4954498;28;20031;-75
2022/01/06 02:37:47;;;;;;;6.72;2.20;;;;;;;;;;4954495;28;20544;-75
2022/01/06 02:40:21;;;;;;;6.55;2.20;;;;;;;;;;4954545;28;20047;-76
2022/01/06 02:42:55;;;;;;;9.00;2.22;;;;;;;;;;4954582;28;20512;-76
2022/01/06 02:45:26;;;;;;;6.38;2.33;;;;;;;;;;4954181;29;20191;-76
2022/01/06 02:47:52;;;;;;;8.65;2.47;;;;;;;;;;4954318;29;20090;-75
2022/01/06 02:50:18;;;;;;;10.38;2.30;;;;;;;;;;4952648;28;20043;-75
2022/01/06 02:52:45;;;;;;;7.57;2.17;;;;;;;;;;4954418;29;20077;-75
2022/01/06 02:55:13;;;;;;;6.93;2.08;;;;;;;;;;4955826;28;20039;-75
2022/01/06 02:57:40;;;;;;;11.40;2.10;;;;;;;;;;4954516;28;20051;-75
2022/01/06 03:00:08;;;;;;;5.95;1.80;;;;;;;;;;4952505;28;20058;-75
2022/01/06 03:02:34;;;;;;;10.77;2.13;;;;;;;;;;4954464;29;20027;-75
2022/01/06 03:05:00;;;;;;;9.15;2.15;;;;;;;;;;4967816;28;20043;-75
2022/01/06 03:07:26;;;;;;;9.38;2.13;;;;;;;;;;4953694;28;20078;-76
2022/01/06 03:09:55;;;;;;;8.85;2.17;;;;;;;;;;4955148;28;20046;-75
2022/01/06 03:12:32;;;;;;;11.00;2.30;;;;;;;;;;4955206;29;20028;-75
2022/01/06 03:14:59;;;;;;;9.30;2.17;;;;;;;;;;4955462;29;20035;-75
2022/01/06 03:17:25;;;;;;;7.00;2.33;;;;;;;;;;4953229;29;20083;-75
2022/01/06 03:19:51;;;;;;;10.55;2.08;;;;;;;;;;4968748;28;20094;-75
2022/01/06 03:22:17;;;;;;;6.63;1.75;;;;;;;;;;4954215;28;20137;-75
2022/01/06 03:24:44;;;;;;;6.93;1.92;;;;;;;;;;4954905;28;20051;-75
2022/01/06 03:27:10;;;;;;;9.38;1.95;;;;;;;;;;4954280;28;20050;-75
2022/01/06 03:29:36;;;;;;;13.10;2.30;;;;;;;;;;4954206;28;20046;-75
2022/01/06 03:32:03;;;;;;;9.70;2.42;;;;;;;;;;4952346;28;20089;-75
2022/01/06 03:34:32;;;;;;;11.80;2.53;;;;;;;;;;4953682;29;20039;-75
2022/01/06 03:37:00;;;;;;;10.95;2.58;;;;;;;;;;4953858;28;20576;-75
2022/01/06 03:39:25;;;;;;;8.77;2.38;;;;;;;;;;4953341;29;20038;-75
2022/01/06 03:41:51;;;;;;;8.10;1.90;;;;;;;;;;4953319;29;20023;-75
2022/01/06 03:44:18;;;;;;;12.55;1.98;;;;;;;;;;4952993;29;20034;-75
2022/01/06 03:46:44;;;;;;;11.07;1.88;;;;;;;;;;4960668;28;20045;-75
2022/01/06 03:49:10;;;;;;;8.52;2.10;;;;;;;;;;4971552;28;20484;-75
2022/01/06 03:51:36;;;;;;;9.20;2.20;;;;;;;;;;4972396;28;20085;-75
2022/01/06 03:54:02;;;;;;;9.23;2.40;;;;;;;;;;4972564;28;20416;-75
2022/01/06 03:56:28;;;;;;;14.13;2.78;;;;;;;;;;4972238;28;20039;-75
2022/01/06 03:58:54;;;;;;;9.70;2.17;;;;;;;;;;4970658;28;20043;-75
2022/01/06 04:01:19;;;;;;;13.40;2.72;;;;;;;;;;4972327;28;20042;-75
2022/01/06 04:03:47;;;;;;;8.85;2.72;;;;;;;;;;4972183;28;20058;-75
2022/01/06 04:06:14;;;;;;;16.15;3.20;;;;;;;;;;4972168;28;20027;-75
2022/01/06 04:08:40;;;;;;;9.35;2.25;;;;;;;;;;4972150;28;20034;-75
2022/01/06 04:11:06;;;;;;;6.75;2.10;;;;;;;;;;4972406;28;20038;-75
2022/01/06 04:13:33;;;;;;;14.35;2.55;;;;;;;;;;4971940;28;20061;-75
2022/01/06 04:16:02;;;;;;;9.05;2.33;;;;;;;;;;4972606;28;20065;-76
2022/01/06 04:18:28;;;;;;;11.43;2.63;;;;;;;;;;4972254;28;20019;-76
2022/01/06 04:20:54;;;;;;;11.90;2.90;;;;;;;;;;4971907;28;20499;-76
2022/01/06 04:23:20;;;;;;;14.25;2.80;;;;;;;;;;4969684;28;20064;-75
2022/01/06 04:25:46;;;;;;;12.73;2.92;;;;;;;;;;4969416;28;20042;-75
2022/01/06 04:28:12;;;;;;;8.50;2.70;;;;;;;;;;4971549;28;20073;-75
2022/01/06 04:30:38;;;;;;;12.20;2.60;;;;;;;;;;4972199;28;20071;-76
2022/01/06 04:33:04;;;;;;;13.50;3.30;;;;;;;;;;4970035;28;20043;-76
2022/01/06 04:35:30;;;;;;;10.13;2.65;;;;;;;;;;4971493;28;20050;-76
2022/01/06 04:37:55;;;;;;;12.73;2.63;;;;;;;;;;4971875;28;20042;-76
2022/01/06 04:40:21;;;;;;;20.13;3.33;;;;;;;;;;4971463;28;20409;-75
2022/01/06 04:42:48;;;;;;;13.88;2.55;;;;;;;;;;4971411;28;20122;-75
2022/01/06 04:45:14;;;;;;;13.18;3.00;;;;;;;;;;4971030;28;20043;-75
2022/01/06 04:47:40;;;;;;;10.60;2.35;;;;;;;;;;4971411;28;20035;-75
2022/01/06 04:50:07;;;;;;;14.90;2.55;;;;;;;;;;4971001;28;20354;-75
2022/01/06 04:52:32;;;;;;;11.85;2.70;;;;;;;;;;4969403;28;20057;-76
2022/01/06 04:54:58;;;;;;;12.48;3.00;;;;;;;;;;4971484;28;20047;-76
2022/01/06 04:57:24;;;;;;;15.23;3.42;;;;;;;;;;4971375;28;20354;-76
2022/01/06 04:59:50;;;;;;;10.10;2.20;;;;;;;;;;4971239;28;20562;-76
2022/01/06 05:02:16;;;;;;;18.95;2.75;;;;;;;;;;4971100;28;20074;-76
2022/01/06 05:04:42;;;;;;;15.90;2.92;;;;;;;;;;4971065;28;20112;-73
2022/01/06 05:07:08;;;;;;;16.75;2.63;;;;;;;;;;4971494;28;20039;-76
2022/01/06 05:09:34;;;;;;;15.18;2.63;;;;;;;;;;4969750;28;20039;-76
2022/01/06 05:11:59;;;;;;;10.63;2.47;;;;;;;;;;4971275;28;20453;-74
2022/01/06 05:14:25;;;;;;;11.63;2.97;;;;;;;;;;4969801;28;20077;-75
2022/01/06 05:16:51;;;;;;;13.32;2.90;;;;;;;;;;4971550;28;20031;-76
2022/01/06 05:19:17;;;;;;;14.45;2.95;;;;;;;;;;4971796;28;20041;-75
2022/01/06 05:21:43;;;;;;;11.63;2.60;;;;;;;;;;4971306;28;20464;-76
2022/01/06 05:24:13;;;;;;;14.35;3.13;;;;;;;;;;4971434;28;20055;-76
2022/01/06 05:26:40;;;;;;;11.27;2.63;;;;;;;;;;4969913;28;20495;-75
2022/01/06 05:29:11;;;;;;;14.88;3.33;;;;;;;;;;4972948;28;20027;-76
2022/01/06 05:31:37;;;;;;;14.43;2.72;;;;;;;;;;4975489;28;20030;-76
2022/01/06 05:34:04;;;;;;;11.27;2.53;;;;;;;;;;4975618;28;20189;-75
2022/01/06 05:36:30;;;;;;;15.40;2.45;;;;;;;;;;4975398;28;20053;-76
2022/01/06 05:38:56;;;;;;;11.20;3.20;;;;;;;;;;4974848;28;20043;-75
2022/01/06 05:41:22;;;;;;;12.82;2.60;;;;;;;;;;4989113;28;20575;-75
2022/01/06 05:43:49;;;;;;;12.85;3.05;;;;;;;;;;4975089;28;20065;-76
2022/01/06 05:46:16;;;;;;;11.32;2.80;;;;;;;;;;4974447;28;20050;-76
2022/01/06 05:48:42;;;;;;;13.85;3.08;;;;;;;;;;4975095;28;20504;-75
2022/01/06 05:51:08;;;;;;;14.60;3.03;;;;;;;;;;4975593;28;20042;-75
2022/01/06 05:53:34;;;;;;;12.20;2.47;;;;;;;;;;4973994;28;20038;-75
2022/01/06 05:56:00;;;;;;;17.35;3.70;;;;;;;;;;4976526;28;20444;-75
2022/01/06 05:58:26;;;;;;;11.88;2.63;;;;;;;;;;4975193;28;20039;-75
2022/01/06 06:00:52;;;;;;;14.40;2.58;;;;;;;;;;4975928;28;20073;-76
2022/01/06 06:03:18;;;;;;;13.60;2.75;;;;;;;;;;4976406;28;20058;-76
2022/01/06 06:05:44;;;;;;;12.63;2.42;;;;;;;;;;4948687;28;20051;-76
2022/01/06 06:08:10;;;;;;;15.70;3.30;;;;;;;;;;4977013;28;20041;-76
2022/01/06 06:10:36;;;;;;;17.77;3.03;;;;;;;;;;4974721;28;20034;-76
2022/01/06 06:13:03;;;;;;;13.05;2.60;;;;;;;;;;4974896;28;20022;-76
2022/01/06 06:15:34;;;;;;;14.60;3.72;;;;;;;;;;4975092;28;20035;-76
2022/01/06 06:18:04;;;;;;;17.35;3.88;;;;;;;;;;4974154;28;20030;-76
2022/01/06 06:20:34;;;;;;;8.48;2.80;;;;;;;;;;4972399;28;20043;-76
2022/01/06 06:23:00;;;;;;;17.90;4.60;;;;;;;;;;4976313;28;20039;-76
2022/01/06 06:25:26;;;;;;;19.02;7.05;;;;;;;;;;4973649;28;20035;-70
2022/01/06 06:27:52;;;;;;;15.55;3.00;;;;;;;;;;4968398;28;20081;-70
2022/01/06 06:30:18;;;;;;;15.65;3.00;;;;;;;;;;4972337;28;20073;-70
2022/01/06 06:32:44;;;;;;;15.77;3.17;;;;;;;;;;4973472;28;20404;-70
2022/01/06 06:35:11;;;;;;;11.55;2.97;;;;;;;;;;4972639;28;20054;-74
2022/01/06 06:37:37;;;;;;;13.40;2.55;;;;;;;;;;4988783;28;20481;-73
2022/01/06 06:40:06;;;;;;;17.40;3.00;;;;;;;;;;4971992;28;20469;-74
2022/01/06 06:42:32;;;;;;;13.52;2.90;;;;;;;;;;4972840;28;20046;-74
2022/01/06 06:44:58;;;;;;;16.58;3.58;;;;;;;;;;4972019;28;20039;-73
2022/01/06 06:47:24;;;;;;;15.07;3.58;;;;;;;;;;4972777;28;20046;-74
2022/01/06 06:49:50;;;;;;;15.77;3.50;;;;;;;;;;4974000;28;20513;-74
2022/01/06 06:52:17;;;;;;;14.55;3.20;;;;;;;;;;4974050;28;20038;-73
2022/01/06 06:54:43;;;;;;;14.30;3.08;;;;;;;;;;4965968;28;20043;-70
2022/01/06 06:57:09;;;;;;;21.23;4.25;;;;;;;;;;4976148;28;20042;-70
2022/01/06 06:59:36;;;;;;;22.67;4.53;;;;;;;;;;4965621;28;20023;-70
2022/01/06 07:02:02;;;;;;;12.52;3.40;;;;;;;;;;4967245;28;20038;-71
2022/01/06 07:04:28;;;;;;;15.25;3.70;;;;;;;;;;4970100;28;20373;-71
2022/01/06 07:06:53;;;;;;;11.75;3.30;;;;;;;;;;4972877;28;20039;-75
2022/01/06 07:09:19;;;;;;;19.15;3.75;;;;;;;;;;4966924;28;20082;-73
2022/01/06 07:11:45;;;;;;;14.80;3.72;;;;;;;;;;4967429;28;20071;-72
2022/01/06 07:14:11;;;;;;;43.95;17.92;;;;;;;;;;4971801;28;20378;-71
2022/01/06 07:16:37;;;;;;;25.30;11.25;;;;;;;;;;4971289;28;20078;-71
2022/01/06 07:19:03;;;;;;;26.38;9.13;;;;;;;;;;4964404;28;20393;-70
2022/01/06 07:21:28;;;;;;;14.85;3.75;;;;;;;;;;4967053;28;20062;-73
2022/01/06 07:23:54;;;;;;;10.13;2.85;;;;;;;;;;4955492;28;20074;-76
2022/01/06 07:26:20;;;;;;;13.52;3.17;;;;;;;;;;4972645;28;20581;-75
2022/01/06 07:28:46;;;;;;;18.30;3.33;;;;;;;;;;4967911;28;20102;-74
2022/01/06 07:31:12;;;;;;;14.77;2.65;;;;;;;;;;4966525;28;20066;-74
2022/01/06 07:33:38;;;;;;;15.43;3.05;;;;;;;;;;4963470;28;20129;-74
2022/01/06 07:36:05;;;;;;;12.52;2.70;;;;;;;;;;4976764;28;20058;-74
2022/01/06 07:38:30;;;;;;;10.93;2.50;;;;;;;;;;4987748;28;20054;-74
2022/01/06 07:40:56;;;;;;;11.52;2.85;;;;;;;;;;4972407;28;20113;-76
2022/01/06 07:43:23;;;;;;;13.73;2.75;;;;;;;;;;4971524;28;20038;-76
2022/01/06 07:45:49;;;;;;;17.55;3.00;;;;;;;;;;4972004;28;20711;-72
2022/01/06 07:48:18;;;;;;;21.17;7.78;;;;;;;;;;4971543;28;20033;-72
2022/01/06 07:50:46;;;;;;;44.70;16.67;;;;;;;;;;4971806;28;20029;-70
2022/01/06 07:53:13;;;;;;;15.48;3.00;;;;;;;;;;4971726;28;20038;-71
2022/01/06 07:55:39;;;;;;;16.08;2.83;;;;;;;;;;4963775;28;20034;-72
2022/01/06 07:58:05;;;;;;;11.43;2.53;;;;;;;;;;4968108;28;20046;-73
2022/01/06 08:00:31;;;;;;;11.75;2.33;;;;;;;;;;4982750;28;20484;-72
2022/01/06 08:02:57;;;;;;;9.02;2.30;;;;;;;;;;4958797;28;20484;-72
2022/01/06 08:05:26;;;;;;;10.73;2.40;;;;;;;;;;4971686;28;20743;-75
2022/01/06 08:07:53;;;;;;;14.00;2.80;;;;;;;;;;4972241;28;20054;-73
2022/01/06 08:10:20;;;;;;;11.30;2.33;;;;;;;;;;4985428;28;20038;-74
2022/01/06 08:12:46;;;;;;;11.02;2.47;;;;;;;;;;4964316;28;20042;-74
2022/01/06 08:15:14;;;;;;;11.63;2.58;;;;;;;;;;4970509;28;20829;-73
2022/01/06 08:17:41;;;;;;;10.77;2.78;;;;;;;;;;4939712;29;20417;-73
2022/01/06 08:20:08;;;;;;;11.05;2.50;;;;;;;;;;4967070;28;20039;-72
2022/01/06 08:22:35;;;;;;;14.07;2.65;;;;;;;;;;4970807;28;20058;-73
2022/01/06 08:25:04;;;;;;;13.80;2.55;;;;;;;;;;4960292;28;20043;-73
2022/01/06 08:27:29;;;;;;;11.40;2.40;;;;;;;;;;4971267;28;20053;-72
2022/01/06 08:29:55;;;;;;;10.48;2.50;;;;;;;;;;4955349;28;20036;-72
2022/01/06 08:32:21;;;;;;;11.93;2.53;;;;;;;;;;4961342;28;20489;-73
2022/01/06 08:34:49;;;;;;;38.40;15.38;;;;;;;;;;4969311;28;20047;-73
2022/01/06 08:37:15;;;;;;;10.63;2.75;;;;;;;;;;4972009;28;20051;-73
2022/01/06 08:39:41;;;;;;;15.70;3.10;;;;;;;;;;4970703;28;20035;-73
2022/01/06 08:42:07;;;;;;;11.32;3.00;;;;;;;;;;4969899;28;20047;-73
2022/01/06 08:44:34;;;;;;;11.68;2.60;;;;;;;;;;4972595;28;20385;-72
2022/01/06 08:47:01;;;;;;;22.50;3.67;;;;;;;;;;4971217;28;20043;-72
2022/01/06 08:49:28;;;;;;;16.38;3.17;;;;;;;;;;4971311;28;20051;-72
2022/01/06 08:51:54;;;;;;;14.80;3.20;;;;;;;;;;4970195;28;20485;-72
2022/01/06 08:54:19;;;;;;;13.63;2.97;;;;;;;;;;4975569;28;20081;-71
2022/01/06 08:56:45;;;;;;;12.32;3.15;;;;;;;;;;4970052;28;20046;-71
2022/01/06 08:59:11;;;;;;;14.73;3.40;;;;;;;;;;4971623;28;20114;-72
2022/01/06 09:01:37;;;;;;;14.02;3.10;;;;;;;;;;4959849;28;20560;-75
2022/01/06 09:04:03;;;;;;;15.10;3.03;;;;;;;;;;4984989;28;20074;-73
2022/01/06 09:06:30;;;;;;;16.00;3.10;;;;;;;;;;4961788;28;20063;-73
2022/01/06 09:08:55;;;;;;;13.63;3.03;;;;;;;;;;4968313;28;20039;-74
2022/01/06 09:11:21;;;;;;;10.65;2.78;;;;;;;;;;4967107;28;20034;-73
2022/01/06 09:13:47;;;;;;;16.90;3.35;;;;;;;;;;4976213;23;20535;-73
2022/01/06 09:16:23;;;;;;;13.93;4.78;;;;;;;;;;4971357;28;20071;-73
2022/01/06 09:18:49;;;;;;;10.05;2.63;;;;;;;;;;4969796;28;20038;-74
2022/01/06 09:21:22;;;;;;;11.60;2.95;;;;;;;;;;4956732;28;20023;-74
2022/01/06 09:23:50;;;;;;;11.52;3.53;;;;;;;;;;4971393;28;20464;-73
2022/01/06 09:26:16;;;;;;;14.57;3.65;;;;;;;;;;4971400;28;20062;-73
2022/01/06 09:28:42;;;;;;;10.20;3.08;;;;;;;;;;4970539;28;20026;-75
2022/01/06 09:31:08;;;;;;;14.30;3.65;;;;;;;;;;4971239;28;20105;-73
2022/01/06 09:33:34;;;;;;;22.15;7.30;;;;;;;;;;4971244;28;20058;-73
2022/01/06 09:36:00;;;;;;;15.13;3.08;;;;;;;;;;4971128;28;20112;-74
2022/01/06 09:38:26;;;;;;;14.02;2.85;;;;;;;;;;4971217;28;20034;-72
2022/01/06 09:40:52;;;;;;;18.52;3.22;;;;;;;;;;4953472;28;20078;-72
2022/01/06 09:43:24;;;;;;;11.50;3.00;;;;;;;;;;4969366;28;20039;-73
2022/01/06 09:45:51;;;;;;;10.65;2.70;;;;;;;;;;4971217;28;20050;-74
2022/01/06 09:48:22;;;;;;;12.02;3.58;;;;;;;;;;4970899;28;20464;-74
2022/01/06 09:50:48;;;;;;;11.25;2.60;;;;;;;;;;4971247;28;20046;-74
2022/01/06 09:53:16;;;;;;;10.15;2.92;;;;;;;;;;4970978;28;20477;-74
2022/01/06 09:55:42;;;;;;;15.57;3.65;;;;;;;;;;4970901;28;20047;-74
2022/01/06 09:58:09;;;;;;;13.88;3.40;;;;;;;;;;4969946;28;20073;-73
2022/01/06 10:00:35;;;;;;;10.75;2.60;;;;;;;;;;4971035;28;20039;-74
2022/01/06 10:03:04;;;;;;;13.90;2.60;;;;;;;;;;4970800;28;20531;-73
2022/01/06 10:05:49;;;;;;;11.20;2.63;;;;;;;;;;4971078;28;20054;-73
2022/01/06 10:08:28;;;;;;;12.18;2.60;;;;;;;;;;4971147;28;20043;-74
2022/01/06 10:11:18;;;;;;;11.68;2.88;;;;;;;;;;4971078;28;20039;-74
2022/01/06 10:13:46;;;;;;;12.40;3.00;;;;;;;;;;4958828;28;20043;-75
2022/01/06 10:16:13;;;;;;;12.65;3.80;;;;;;;;;;4971106;28;20069;-74
2022/01/06 10:18:41;;;;;;;13.15;2.90;;;;;;;;;;4973273;28;20065;-73
2022/01/06 10:21:23;;;;;;;13.95;3.03;;;;;;;;;;4974477;28;20378;-73
2022/01/06 10:24:06;;;;;;;10.20;2.92;;;;;;;;;;4973003;28;20042;-73
2022/01/06 10:26:33;;;;;;;13.05;3.95;;;;;;;;;;4974508;28;20051;-73
2022/01/06 10:28:59;;;;;;;50.28;20.23;;;;;;;;;;4972876;28;20034;-73
2022/01/06 10:31:30;;;;;;;19.08;6.68;;;;;;;;;;4972993;28;20026;-73
2022/01/06 10:33:56;;;;;;;;;;;;;;;;;;4974308;28;20496;-73
2022/01/06 10:36:31;;;;;;;14.57;3.10;;;;;;;;;;4971620;28;19938;-73
2022/01/06 10:38:59;;;;;;;16.13;3.88;;;;;;;;;;4973965;28;20043;-73
2022/01/06 10:41:27;;;;;;;9.27;2.78;;;;;;;;;;4973754;28;20034;-73
2022/01/06 10:43:55;;;;;;;11.55;2.83;;;;;;;;;;4973680;28;20031;-73
2022/01/06 10:46:28;;;;;;;9.43;2.85;;;;;;;;;;4973395;28;20097;-73
2022/01/06 10:49:05;;;;;;;10.95;3.78;;;;;;;;;;4973734;28;20035;-73
2022/01/06 10:51:50;;;;;;;29.48;12.73;;;;;;;;;;4973170;28;20052;-73
2022/01/06 10:54:24;;;;;;;22.38;8.52;;;;;;;;;;4973565;28;20374;-73
2022/01/06 10:57:07;;;;;;;13.57;3.25;;;;;;;;;;4973095;28;20035;-73
2022/01/06 10:59:35;;;;;;;13.07;3.30;;;;;;;;;;4973751;28;20051;-73
2022/01/06 11:02:03;;;;;;;18.52;3.97;;;;;;;;;;4973545;28;20053;-73
2022/01/06 11:04:29;;;;;;;14.00;3.05;;;;;;;;;;4973328;28;20042;-74
2022/01/06 11:06:56;;;;;;;13.38;3.25;;;;;;;;;;4973192;28;20096;-74
2022/01/06 11:09:22;;;;;;;16.08;3.10;;;;;;;;;;4971511;28;20484;-74
2022/01/06 11:14:29;;;;;;;13.27;3.28;;;;;;;;;;4969561;28;20059;-75
2022/01/06 11:16:55;;;;;;;9.88;2.65;;;;;;;;;;4964987;28;20038;-75
2022/01/06 11:19:23;;;;;;;17.75;3.20;;;;;;;;;;4962065;28;20038;-75
2022/01/06 11:21:51;;;;;;;16.05;3.65;;;;;;;;;;4965422;28;20046;-74
2022/01/06 11:24:20;;;;;;;11.82;2.85;;;;;;;;;;4969037;28;20031;-74
2022/01/06 11:26:58;;;;;;;10.25;2.80;;;;;;;;;;4970070;28;20365;-74
2022/01/06 11:29:45;;;;;;;12.48;3.30;;;;;;;;;;4971564;28;20050;-74
2022/01/06 11:32:23;;;;;;;12.63;3.00;;;;;;;;;;4978956;28;20038;-74
2022/01/06 11:35:08;;;;;;;12.65;2.83;;;;;;;;;;4980406;28;20046;-74
2022/01/06 11:37:42;;;;;;;10.85;3.10;;;;;;;;;;4982464;28;20396;-74
2022/01/06 11:40:10;;;;;;;13.80;3.42;;;;;;;;;;4979707;28;20038;-73
2022/01/06 11:42:36;;;;;;;46.50;22.25;;;;;;;;;;4975751;28;20489;-73
2022/01/06 11:45:05;;;;;;;11.07;3.30;;;;;;;;;;4971949;28;20051;-73
2022/01/06 11:47:37;;;;;;;12.90;2.88;;;;;;;;;;4972254;28;20050;-73
2022/01/06 11:50:08;;;;;;;11.30;3.47;;;;;;;;;;4972484;28;20039;-73
2022/01/06 11:52:34;;;;;;;13.57;3.15;;;;;;;;;;4970622;28;20255;-73
2022/01/06 11:55:11;;;;;;;16.17;2.60;;;;;;;;;;4970351;28;20042;-73
2022/01/06 11:57:38;;;;;;;12.23;3.50;;;;;;;;;;4970245;28;20039;-73
2022/01/06 12:00:24;;;;;;;8.57;2.70;;;;;;;;;;4972380;28;20027;-73
2022/01/06 12:03:04;;;;;;;13.30;3.22;;;;;;;;;;4962456;28;20039;-73
2022/01/06 12:05:49;;;;;;;16.02;3.03;;;;;;;;;;4971883;28;20042;-73
2022/01/06 12:08:16;;;;;;;17.80;2.97;;;;;;;;;;4972258;28;20047;-73
2022/01/06 12:10:47;;;;;;;11.20;2.80;;;;;;;;;;4970917;28;20046;-73
2022/01/06 12:13:14;;;;;;;10.05;2.72;;;;;;;;;;4971761;28;20059;-73
2022/01/06 12:15:50;;;;;;;11.23;2.50;;;;;;;;;;4970920;28;20050;-73
2022/01/06 12:18:20;;;;;;;15.32;3.17;;;;;;;;;;4972171;28;20061;-73
2022/01/06 12:20:48;;;;;;;13.05;3.47;;;;;;;;;;4972105;28;20027;-74
2022/01/06 12:23:15;;;;;;;14.27;2.92;;;;;;;;;;4971568;28;20042;-72
2022/01/06 12:26:09;;;;;;;14.30;3.85;;;;;;;;;;4970832;28;20039;-73
2022/01/06 12:28:46;;;;;;;22.70;7.13;;;;;;;;;;4968677;28;20042;-74
2022/01/06 12:31:14;;;;;;;32.78;14.88;;;;;;;;;;4968889;28;20023;-74
2022/01/06 12:33:45;;;;;;;13.35;2.88;;;;;;;;;;4962392;28;20408;-71
2022/01/06 12:36:11;;;;;;;13.13;3.30;;;;;;;;;;4970445;28;20054;-71
2022/01/06 12:38:39;;;;;;;10.13;2.42;;;;;;;;;;4971064;28;20043;-71
2022/01/06 12:41:05;;;;;;;11.55;2.58;;;;;;;;;;4969639;28;20046;-71
2022/01/06 12:43:35;;;;;;;11.75;2.70;;;;;;;;;;4971388;28;20062;-71
2022/01/06 13:05:06;;;;;;;12.73;3.78;;;;;;;;;;4413288;23;21099;-77
2022/01/06 13:07:32;;;;;;;8.70;2.53;;;;;;;;;;4985461;23;20061;-74
2022/01/06 13:09:58;;;;;;;12.90;2.58;;;;;;;;;;4958057;28;20050;-74
2022/01/06 13:12:26;;;;;;;9.35;2.35;;;;;;;;;;4962012;28;20031;-74
2022/01/06 13:14:53;;;;;;;12.05;2.60;;;;;;;;;;4952848;28;20424;-74
2022/01/06 13:17:23;;;;;;;10.35;2.75;;;;;;;;;;4952283;28;20043;-71
2022/01/06 13:19:59;;;;;;;11.18;2.30;;;;;;;;;;4966901;28;20240;-73
2022/01/06 13:25:31;;;;;;;11.93;2.90;;;;;;;;;;4952231;28;20043;-73
2022/01/06 13:27:56;;;;;;;10.15;2.70;;;;;;;;;;4966400;28;20043;-73
2022/01/06 13:30:30;;;;;;;9.45;2.45;;;;;;;;;;4955103;28;20035;-73
2022/01/06 13:32:57;;;;;;;9.15;2.40;;;;;;;;;;4959918;28;20030;-73
2022/01/06 13:35:23;;;;;;;11.95;2.15;;;;;;;;;;4959669;28;20035;-73
2022/01/06 13:37:48;;;;;;;16.40;2.95;;;;;;;;;;4967142;28;20053;-73
2022/01/06 13:40:15;;;;;;;9.23;2.22;;;;;;;;;;4954693;28;20075;-73
2022/01/06 13:42:46;;;;;;;12.77;2.47;;;;;;;;;;4965389;28;20046;-73
2022/01/06 13:53:01;;;;;;;29.77;12.00;;;;;;;;;;4967526;28;20396;-73
2022/01/06 13:55:27;;;;;;;13.77;2.75;;;;;;;;;;4966046;28;20049;-73
2022/01/06 13:57:53;;;;;;;13.20;2.50;;;;;;;;;;4971515;28;20031;-73
2022/01/06 14:00:19;;;;;;;15.70;2.85;;;;;;;;;;4973156;28;20491;-73
2022/01/06 14:02:47;;;;;;;10.70;2.22;;;;;;;;;;4985008;28;20050;-73
2022/01/06 14:05:16;;;;;;;10.70;2.13;;;;;;;;;;4957597;28;20051;-73
2022/01/06 14:07:45;;;;;;;14.32;2.65;;;;;;;;;;4933016;29;20413;-73
2022/01/06 14:10:10;;;;;;;11.77;2.30;;;;;;;;;;4953757;29;20031;-73
2022/01/06 14:12:36;;;;;;;15.00;3.05;;;;;;;;;;4940684;29;20468;-73
2022/01/06 14:15:03;;;;;;;17.23;3.38;;;;;;;;;;4946783;28;20040;-73
2022/01/06 14:17:29;;;;;;;14.85;2.65;;;;;;;;;;4946250;29;20514;-73
2022/01/06 14:19:55;;;;;;;16.88;3.20;;;;;;;;;;4949218;28;20051;-73
2022/01/06 14:22:21;;;;;;;10.95;2.47;;;;;;;;;;4954794;29;20098;-73
2022/01/06 14:24:47;;;;;;;8.85;2.92;;;;;;;;;;4948707;29;20085;-73
2022/01/06 14:27:13;;;;;;;12.02;2.38;;;;;;;;;;4945026;29;20061;-73
2022/01/06 14:29:38;;;;;;;9.93;2.55;;;;;;;;;;4941847;28;20490;-73
2022/01/06 14:32:05;;;;;;;8.38;2.13;;;;;;;;;;4952063;29;20071;-73
2022/01/06 14:34:31;;;;;;;10.05;2.58;;;;;;;;;;4954858;29;20035;-73
2022/01/06 14:36:56;;;;;;;10.98;2.30;;;;;;;;;;4954788;29;20085;-74
2022/01/06 14:39:22;;;;;;;13.55;2.42;;;;;;;;;;4954866;28;20075;-73
2022/01/06 14:41:48;;;;;;;11.02;2.75;;;;;;;;;;4955001;29;20123;-74
2022/01/06 14:44:14;;;;;;;10.02;2.42;;;;;;;;;;4954767;29;20027;-73
2022/01/06 14:46:40;;;;;;;7.82;2.55;;;;;;;;;;4954873;28;20127;-73
2022/01/06 14:49:06;;;;;;;7.93;2.60;;;;;;;;;;4954662;28;20413;-73
2022/01/06 14:51:33;;;;;;;11.93;2.50;;;;;;;;;;4954977;28;20118;-73
2022/01/06 14:53:59;;;;;;;12.18;2.75;;;;;;;;;;4954208;28;20098;-73
2022/01/06 14:56:25;;;;;;;12.00;2.72;;;;;;;;;;4954344;29;20038;-73
2022/01/06 14:58:51;;;;;;;22.63;6.95;;;;;;;;;;4971810;28;20077;-73
2022/01/06 15:01:17;;;;;;;37.97;14.55;;;;;;;;;;4965681;28;20038;-74
2022/01/06 15:03:43;;;;;;;13.60;3.58;;;;;;;;;;4954314;29;20039;-74
2022/01/06 15:06:09;;;;;;;10.50;2.75;;;;;;;;;;4952792;28;20533;-73
2022/01/06 15:08:35;;;;;;;12.85;2.75;;;;;;;;;;4954225;28;20070;-73
2022/01/06 15:11:01;;;;;;;12.13;2.85;;;;;;;;;;4952606;29;20043;-72
2022/01/06 15:13:27;;;;;;;10.98;2.35;;;;;;;;;;4952727;29;20524;-72
2022/01/06 15:15:54;;;;;;;17.52;2.60;;;;;;;;;;4970339;28;20042;-72
2022/01/06 15:18:20;;;;;;;12.68;2.55;;;;;;;;;;4973173;28;20416;-72
2022/01/06 15:20:47;;;;;;;11.30;2.97;;;;;;;;;;4973154;28;20042;-72